sensor_id;sensor_type;location;lat;lon;timestamp;P1;durP1;ratioP1;P2;durP2;ratioP2
44036;SDS011;62488;-37.670;-63.532;2023-04-23T00:00:41;15.73;;;4.10;;
44036;SDS011;62488;-37.670;-63.532;2023-04-23T00:03:08;15.82;;;4.68;;
44036;SDS011;62488;-37.670;-63.532;2023-04-23T00:05:37;18.45;;;4.57;;
44036;SDS011;62488;-37.670;-63.532;2023-04-23T00:08:06;19.48;;;3.63;;
44036;SDS011;62488;-37.670;-63.532;2023-04-23T00:10:35;19.87;;;4.53;;
44036;SDS011;62488;-37.670;-63.532;2023-04-23T00:13:02;15.52;;;3.60;;
44036;SDS011;62488;-37.670;-63.532;2023-04-23T00:15:30;15.18;;;5.35;;
44036;SDS011;62488;-37.670;-63.532;2023-04-23T00:17:57;18.80;;;4.45;;
44036;SDS011;62488;-37.670;-63.532;2023-04-23T00:20:24;13.00;;;4.43;;
44036;SDS011;62488;-37.670;-63.532;2023-04-23T00:22:51;18.48;;;4.10;;
44036;SDS011;62488;-37.670;-63.532;2023-04-23T00:25:18;18.63;;;3.72;;
44036;SDS011;62488;-37.670;-63.532;2023-04-23T00:27:45;19.20;;;4.72;;
44036;SDS011;62488;-37.670;-63.532;2023-04-23T00:30:12;18.17;;;6.13;;
44036;SDS011;62488;-37.670;-63.532;2023-04-23T00:32:41;17.23;;;6.68;;
44036;SDS011;62488;-37.670;-63.532;2023-04-23T00:35:09;21.67;;;5.60;;
44036;SDS011;62488;-37.670;-63.532;2023-04-23T00:37:36;19.55;;;4.88;;
44036;SDS011;62488;-37.670;-63.532;2023-04-23T00:40:03;17.60;;;6.38;;
44036;SDS011;62488;-37.670;-63.532;2023-04-23T00:42:32;24.83;;;9.00;;
44036;SDS011;62488;-37.670;-63.532;2023-04-23T00:44:59;21.55;;;6.70;;
44036;SDS011;62488;-37.670;-63.532;2023-04-23T00:47:27;19.92;;;6.10;;
44036;SDS011;62488;-37.670;-63.532;2023-04-23T00:49:55;20.15;;;4.20;;
44036;SDS011;62488;-37.670;-63.532;2023-04-23T00:52:23;25.33;;;8.18;;
44036;SDS011;62488;-37.670;-63.532;2023-04-23T00:54:50;24.65;;;7.78;;
44036;SDS011;62488;-37.670;-63.532;2023-04-23T00:57:17;20.90;;;6.97;;
44036;SDS011;62488;-37.670;-63.532;2023-04-23T00:59:44;35.60;;;13.25;;
44036;SDS011;62488;-37.670;-63.532;2023-04-23T01:02:13;19.02;;;8.18;;
44036;SDS011;62488;-37.670;-63.532;2023-04-23T01:04:42;26.55;;;9.90;;
44036;SDS011;62488;-37.670;-63.532;2023-04-23T01:07:10;27.90;;;13.00;;
44036;SDS011;62488;-37.670;-63.532;2023-04-23T01:09:38;25.25;;;12.60;;
44036;SDS011;62488;-37.670;-63.532;2023-04-23T01:12:06;33.00;;;11.88;;
44036;SDS011;62488;-37.670;-63.532;2023-04-23T01:14:35;25.98;;;7.65;;
44036;SDS011;62488;-37.670;-63.532;2023-04-23T01:17:03;29.95;;;6.38;;
44036;SDS011;62488;-37.670;-63.532;2023-04-23T01:19:33;19.88;;;5.18;;
44036;SDS011;62488;-37.670;-63.532;2023-04-23T01:22:01;21.52;;;5.00;;
44036;SDS011;62488;-37.670;-63.532;2023-04-23T01:24:28;19.75;;;6.18;;
44036;SDS011;62488;-37.670;-63.532;2023-04-23T01:26:55;20.67;;;6.60;;
44036;SDS011;62488;-37.670;-63.532;2023-04-23T01:29:24;21.65;;;5.65;;
44036;SDS011;62488;-37.670;-63.532;2023-04-23T01:31:54;26.05;;;8.95;;
44036;SDS011;62488;-37.670;-63.532;2023-04-23T01:34:22;27.95;;;11.77;;
44036;SDS011;62488;-37.670;-63.532;2023-04-23T01:36:49;21.15;;;7.78;;
44036;SDS011;62488;-37.670;-63.532;2023-04-23T01:39:19;27.48;;;15.80;;
44036;SDS011;62488;-37.670;-63.532;2023-04-23T01:41:46;36.42;;;12.27;;
44036;SDS011;62488;-37.670;-63.532;2023-04-23T01:44:14;17.08;;;4.80;;
44036;SDS011;62488;-37.670;-63.532;2023-04-23T01:46:41;27.75;;;7.93;;
44036;SDS011;62488;-37.670;-63.532;2023-04-23T01:49:08;23.20;;;9.63;;
44036;SDS011;62488;-37.670;-63.532;2023-04-23T01:51:35;22.35;;;7.68;;
44036;SDS011;62488;-37.670;-63.532;2023-04-23T01:54:02;27.33;;;6.32;;
44036;SDS011;62488;-37.670;-63.532;2023-04-23T01:56:29;22.02;;;6.63;;
44036;SDS011;62488;-37.670;-63.532;2023-04-23T01:58:58;19.08;;;5.35;;
44036;SDS011;62488;-37.670;-63.532;2023-04-23T02:01:39;19.52;;;6.03;;
44036;SDS011;62488;-37.670;-63.532;2023-04-23T02:04:07;38.42;;;12.07;;
44036;SDS011;62488;-37.670;-63.532;2023-04-23T02:06:35;29.38;;;8.70;;
44036;SDS011;62488;-37.670;-63.532;2023-04-23T02:09:02;25.02;;;6.43;;
44036;SDS011;62488;-37.670;-63.532;2023-04-23T02:11:30;25.83;;;5.22;;
44036;SDS011;62488;-37.670;-63.532;2023-04-23T02:13:57;18.08;;;4.88;;
44036;SDS011;62488;-37.670;-63.532;2023-04-23T02:16:24;29.67;;;12.27;;
44036;SDS011;62488;-37.670;-63.532;2023-04-23T02:18:53;21.30;;;5.50;;
44036;SDS011;62488;-37.670;-63.532;2023-04-23T02:21:21;23.88;;;5.60;;
44036;SDS011;62488;-37.670;-63.532;2023-04-23T02:23:49;20.85;;;7.07;;
44036;SDS011;62488;-37.670;-63.532;2023-04-23T02:26:16;37.67;;;14.95;;
44036;SDS011;62488;-37.670;-63.532;2023-04-23T02:28:44;30.88;;;12.10;;
44036;SDS011;62488;-37.670;-63.532;2023-04-23T02:31:11;24.15;;;7.57;;
44036;SDS011;62488;-37.670;-63.532;2023-04-23T02:33:40;24.70;;;6.20;;
44036;SDS011;62488;-37.670;-63.532;2023-04-23T02:36:07;19.83;;;7.57;;
44036;SDS011;62488;-37.670;-63.532;2023-04-23T02:38:36;20.23;;;4.97;;
44036;SDS011;62488;-37.670;-63.532;2023-04-23T02:41:06;21.40;;;4.20;;
44036;SDS011;62488;-37.670;-63.532;2023-04-23T02:43:33;17.38;;;4.60;;
44036;SDS011;62488;-37.670;-63.532;2023-04-23T02:46:00;21.55;;;5.93;;
44036;SDS011;62488;-37.670;-63.532;2023-04-23T02:48:35;19.23;;;4.78;;
44036;SDS011;62488;-37.670;-63.532;2023-04-23T02:51:03;16.88;;;3.97;;
44036;SDS011;62488;-37.670;-63.532;2023-04-23T02:53:31;27.38;;;4.63;;
44036;SDS011;62488;-37.670;-63.532;2023-04-23T02:55:58;19.58;;;3.78;;
44036;SDS011;62488;-37.670;-63.532;2023-04-23T02:58:27;15.02;;;4.03;;
44036;SDS011;62488;-37.670;-63.532;2023-04-23T03:00:54;16.77;;;4.00;;
44036;SDS011;62488;-37.670;-63.532;2023-04-23T03:03:22;18.05;;;5.10;;
44036;SDS011;62488;-37.670;-63.532;2023-04-23T03:05:51;18.63;;;4.33;;
44036;SDS011;62488;-37.670;-63.532;2023-04-23T03:08:18;25.88;;;5.50;;
44036;SDS011;62488;-37.670;-63.532;2023-04-23T03:10:45;16.50;;;4.78;;
44036;SDS011;62488;-37.670;-63.532;2023-04-23T03:13:13;12.02;;;3.28;;
44036;SDS011;62488;-37.670;-63.532;2023-04-23T03:15:40;16.90;;;4.03;;
44036;SDS011;62488;-37.670;-63.532;2023-04-23T03:18:07;15.32;;;4.03;;
44036;SDS011;62488;-37.670;-63.532;2023-04-23T03:20:34;18.55;;;4.03;;
44036;SDS011;62488;-37.670;-63.532;2023-04-23T03:23:01;17.15;;;4.32;;
44036;SDS011;62488;-37.670;-63.532;2023-04-23T03:25:31;9.43;;;2.80;;
44036;SDS011;62488;-37.670;-63.532;2023-04-23T03:27:59;18.92;;;5.00;;
44036;SDS011;62488;-37.670;-63.532;2023-04-23T03:30:26;13.35;;;4.30;;
44036;SDS011;62488;-37.670;-63.532;2023-04-23T03:32:54;13.10;;;4.57;;
44036;SDS011;62488;-37.670;-63.532;2023-04-23T03:35:22;15.50;;;3.67;;
44036;SDS011;62488;-37.670;-63.532;2023-04-23T03:37:50;25.73;;;4.50;;
44036;SDS011;62488;-37.670;-63.532;2023-04-23T03:40:17;15.20;;;3.92;;
44036;SDS011;62488;-37.670;-63.532;2023-04-23T03:42:45;17.95;;;3.50;;
44036;SDS011;62488;-37.670;-63.532;2023-04-23T03:45:13;22.77;;;3.70;;
44036;SDS011;62488;-37.670;-63.532;2023-04-23T03:47:41;15.15;;;4.03;;
44036;SDS011;62488;-37.670;-63.532;2023-04-23T03:50:08;21.60;;;4.53;;
44036;SDS011;62488;-37.670;-63.532;2023-04-23T03:52:37;13.63;;;3.10;;
44036;SDS011;62488;-37.670;-63.532;2023-04-23T03:55:05;15.85;;;4.22;;
44036;SDS011;62488;-37.670;-63.532;2023-04-23T03:57:32;17.38;;;3.80;;
44036;SDS011;62488;-37.670;-63.532;2023-04-23T04:00:00;24.75;;;4.82;;
44036;SDS011;62488;-37.670;-63.532;2023-04-23T04:02:27;13.27;;;3.88;;
44036;SDS011;62488;-37.670;-63.532;2023-04-23T04:04:54;22.17;;;4.00;;
44036;SDS011;62488;-37.670;-63.532;2023-04-23T04:07:21;19.25;;;4.85;;
44036;SDS011;62488;-37.670;-63.532;2023-04-23T04:09:48;15.77;;;3.63;;
44036;SDS011;62488;-37.670;-63.532;2023-04-23T04:12:15;17.38;;;3.50;;
44036;SDS011;62488;-37.670;-63.532;2023-04-23T04:14:42;20.80;;;4.50;;
44036;SDS011;62488;-37.670;-63.532;2023-04-23T04:17:10;17.15;;;4.22;;
44036;SDS011;62488;-37.670;-63.532;2023-04-23T04:19:40;13.68;;;4.05;;
44036;SDS011;62488;-37.670;-63.532;2023-04-23T04:22:08;21.52;;;4.20;;
44036;SDS011;62488;-37.670;-63.532;2023-04-23T04:24:35;19.75;;;3.35;;
44036;SDS011;62488;-37.670;-63.532;2023-04-23T04:27:02;20.00;;;4.30;;
44036;SDS011;62488;-37.670;-63.532;2023-04-23T04:29:30;16.67;;;3.60;;
44036;SDS011;62488;-37.670;-63.532;2023-04-23T04:31:58;17.58;;;3.65;;
44036;SDS011;62488;-37.670;-63.532;2023-04-23T04:34:25;13.02;;;3.63;;
44036;SDS011;62488;-37.670;-63.532;2023-04-23T04:36:53;23.90;;;4.80;;
44036;SDS011;62488;-37.670;-63.532;2023-04-23T04:39:20;28.95;;;4.55;;
44036;SDS011;62488;-37.670;-63.532;2023-04-23T04:41:48;16.48;;;4.72;;
44036;SDS011;62488;-37.670;-63.532;2023-04-23T04:44:16;17.33;;;3.33;;
44036;SDS011;62488;-37.670;-63.532;2023-04-23T04:46:43;9.73;;;3.05;;
44036;SDS011;62488;-37.670;-63.532;2023-04-23T04:49:10;19.30;;;4.43;;
44036;SDS011;62488;-37.670;-63.532;2023-04-23T04:51:38;20.27;;;4.53;;
44036;SDS011;62488;-37.670;-63.532;2023-04-23T04:54:06;16.05;;;3.38;;
44036;SDS011;62488;-37.670;-63.532;2023-04-23T04:56:33;28.05;;;6.10;;
44036;SDS011;62488;-37.670;-63.532;2023-04-23T04:59:01;12.63;;;3.60;;
44036;SDS011;62488;-37.670;-63.532;2023-04-23T05:01:28;12.45;;;3.20;;
44036;SDS011;62488;-37.670;-63.532;2023-04-23T05:03:55;19.15;;;5.50;;
44036;SDS011;62488;-37.670;-63.532;2023-04-23T05:06:23;23.77;;;5.35;;
44036;SDS011;62488;-37.670;-63.532;2023-04-23T05:08:50;19.60;;;4.88;;
44036;SDS011;62488;-37.670;-63.532;2023-04-23T05:11:17;26.08;;;5.07;;
44036;SDS011;62488;-37.670;-63.532;2023-04-23T05:13:48;27.75;;;4.63;;
44036;SDS011;62488;-37.670;-63.532;2023-04-23T05:18:41;19.33;;;4.60;;
44036;SDS011;62488;-37.670;-63.532;2023-04-23T05:21:08;19.80;;;3.90;;
44036;SDS011;62488;-37.670;-63.532;2023-04-23T05:23:35;24.90;;;5.60;;
44036;SDS011;62488;-37.670;-63.532;2023-04-23T05:26:02;20.50;;;5.30;;
44036;SDS011;62488;-37.670;-63.532;2023-04-23T05:28:30;22.42;;;5.90;;
44036;SDS011;62488;-37.670;-63.532;2023-04-23T05:30:57;20.50;;;4.82;;
44036;SDS011;62488;-37.670;-63.532;2023-04-23T05:33:24;19.63;;;5.40;;
44036;SDS011;62488;-37.670;-63.532;2023-04-23T05:35:52;21.70;;;4.50;;
44036;SDS011;62488;-37.670;-63.532;2023-04-23T05:38:19;18.80;;;4.85;;
44036;SDS011;62488;-37.670;-63.532;2023-04-23T05:40:46;23.13;;;6.30;;
44036;SDS011;62488;-37.670;-63.532;2023-04-23T05:43:13;19.40;;;4.63;;
44036;SDS011;62488;-37.670;-63.532;2023-04-23T05:45:40;29.30;;;5.95;;
44036;SDS011;62488;-37.670;-63.532;2023-04-23T05:48:08;19.65;;;4.97;;
44036;SDS011;62488;-37.670;-63.532;2023-04-23T05:50:35;15.88;;;4.65;;
44036;SDS011;62488;-37.670;-63.532;2023-04-23T05:53:02;23.35;;;4.43;;
44036;SDS011;62488;-37.670;-63.532;2023-04-23T05:55:29;21.65;;;5.65;;
44036;SDS011;62488;-37.670;-63.532;2023-04-23T05:57:56;20.88;;;5.07;;
44036;SDS011;62488;-37.670;-63.532;2023-04-23T06:00:23;25.08;;;5.35;;
44036;SDS011;62488;-37.670;-63.532;2023-04-23T06:02:50;14.88;;;4.20;;
44036;SDS011;62488;-37.670;-63.532;2023-04-23T06:05:18;16.38;;;4.57;;
44036;SDS011;62488;-37.670;-63.532;2023-04-23T06:07:45;20.88;;;4.40;;
44036;SDS011;62488;-37.670;-63.532;2023-04-23T06:10:12;16.25;;;5.93;;
44036;SDS011;62488;-37.670;-63.532;2023-04-23T06:12:39;19.15;;;5.35;;
44036;SDS011;62488;-37.670;-63.532;2023-04-23T06:15:07;19.73;;;4.35;;
44036;SDS011;62488;-37.670;-63.532;2023-04-23T06:17:35;22.83;;;4.27;;
44036;SDS011;62488;-37.670;-63.532;2023-04-23T06:20:03;18.88;;;4.30;;
44036;SDS011;62488;-37.670;-63.532;2023-04-23T06:22:33;21.38;;;5.47;;
44036;SDS011;62488;-37.670;-63.532;2023-04-23T06:25:00;21.63;;;4.40;;
44036;SDS011;62488;-37.670;-63.532;2023-04-23T06:27:28;21.92;;;4.93;;
44036;SDS011;62488;-37.670;-63.532;2023-04-23T06:29:55;24.63;;;4.82;;
44036;SDS011;62488;-37.670;-63.532;2023-04-23T06:32:22;20.02;;;4.70;;
44036;SDS011;62488;-37.670;-63.532;2023-04-23T06:34:49;26.70;;;5.70;;
44036;SDS011;62488;-37.670;-63.532;2023-04-23T06:37:16;17.58;;;4.82;;
44036;SDS011;62488;-37.670;-63.532;2023-04-23T06:39:43;21.55;;;4.68;;
44036;SDS011;62488;-37.670;-63.532;2023-04-23T06:42:10;31.77;;;6.55;;
44036;SDS011;62488;-37.670;-63.532;2023-04-23T06:44:37;13.52;;;5.28;;
44036;SDS011;62488;-37.670;-63.532;2023-04-23T06:47:04;17.08;;;4.57;;
44036;SDS011;62488;-37.670;-63.532;2023-04-23T06:49:31;15.73;;;3.67;;
44036;SDS011;62488;-37.670;-63.532;2023-04-23T06:51:58;13.02;;;4.53;;
44036;SDS011;62488;-37.670;-63.532;2023-04-23T06:54:25;18.85;;;5.40;;
44036;SDS011;62488;-37.670;-63.532;2023-04-23T06:56:52;16.20;;;4.13;;
44036;SDS011;62488;-37.670;-63.532;2023-04-23T06:59:21;17.90;;;3.97;;
44036;SDS011;62488;-37.670;-63.532;2023-04-23T07:01:48;16.85;;;4.30;;
44036;SDS011;62488;-37.670;-63.532;2023-04-23T07:04:15;17.13;;;4.03;;
44036;SDS011;62488;-37.670;-63.532;2023-04-23T07:06:42;16.27;;;3.22;;
44036;SDS011;62488;-37.670;-63.532;2023-04-23T07:09:09;21.85;;;4.63;;
44036;SDS011;62488;-37.670;-63.532;2023-04-23T07:11:36;17.73;;;4.40;;
44036;SDS011;62488;-37.670;-63.532;2023-04-23T07:14:03;22.48;;;5.43;;
44036;SDS011;62488;-37.670;-63.532;2023-04-23T07:16:30;21.95;;;4.13;;
44036;SDS011;62488;-37.670;-63.532;2023-04-23T07:18:58;13.93;;;3.67;;
44036;SDS011;62488;-37.670;-63.532;2023-04-23T07:21:28;18.17;;;4.15;;
44036;SDS011;62488;-37.670;-63.532;2023-04-23T07:23:57;18.15;;;3.80;;
44036;SDS011;62488;-37.670;-63.532;2023-04-23T07:26:25;16.67;;;4.35;;
44036;SDS011;62488;-37.670;-63.532;2023-04-23T07:28:52;22.73;;;4.00;;
44036;SDS011;62488;-37.670;-63.532;2023-04-23T07:31:19;17.75;;;4.90;;
44036;SDS011;62488;-37.670;-63.532;2023-04-23T07:33:46;15.68;;;4.03;;
44036;SDS011;62488;-37.670;-63.532;2023-04-23T07:36:13;19.98;;;5.43;;
44036;SDS011;62488;-37.670;-63.532;2023-04-23T07:38:41;17.95;;;4.35;;
44036;SDS011;62488;-37.670;-63.532;2023-04-23T07:41:08;17.23;;;3.70;;
44036;SDS011;62488;-37.670;-63.532;2023-04-23T07:43:35;11.48;;;3.40;;
44036;SDS011;62488;-37.670;-63.532;2023-04-23T07:46:03;20.88;;;4.80;;
44036;SDS011;62488;-37.670;-63.532;2023-04-23T07:48:30;20.90;;;5.45;;
44036;SDS011;62488;-37.670;-63.532;2023-04-23T07:50:59;26.55;;;4.50;;
44036;SDS011;62488;-37.670;-63.532;2023-04-23T07:53:27;14.48;;;4.28;;
44036;SDS011;62488;-37.670;-63.532;2023-04-23T07:55:54;22.38;;;4.43;;
44036;SDS011;62488;-37.670;-63.532;2023-04-23T07:58:22;14.98;;;3.67;;
44036;SDS011;62488;-37.670;-63.532;2023-04-23T08:00:50;15.82;;;4.28;;
44036;SDS011;62488;-37.670;-63.532;2023-04-23T08:03:17;13.48;;;4.13;;
44036;SDS011;62488;-37.670;-63.532;2023-04-23T08:05:44;18.65;;;4.05;;
44036;SDS011;62488;-37.670;-63.532;2023-04-23T08:08:11;14.13;;;4.18;;
44036;SDS011;62488;-37.670;-63.532;2023-04-23T08:10:38;16.33;;;3.80;;
44036;SDS011;62488;-37.670;-63.532;2023-04-23T08:13:06;15.05;;;3.58;;
44036;SDS011;62488;-37.670;-63.532;2023-04-23T08:15:34;14.82;;;3.00;;
44036;SDS011;62488;-37.670;-63.532;2023-04-23T08:18:01;22.63;;;4.80;;
44036;SDS011;62488;-37.670;-63.532;2023-04-23T08:20:29;21.38;;;4.55;;
44036;SDS011;62488;-37.670;-63.532;2023-04-23T08:22:56;15.55;;;4.30;;
44036;SDS011;62488;-37.670;-63.532;2023-04-23T08:25:23;16.77;;;4.50;;
44036;SDS011;62488;-37.670;-63.532;2023-04-23T08:27:51;14.45;;;4.20;;
44036;SDS011;62488;-37.670;-63.532;2023-04-23T08:30:18;24.73;;;4.85;;
44036;SDS011;62488;-37.670;-63.532;2023-04-23T08:32:46;17.90;;;4.40;;
44036;SDS011;62488;-37.670;-63.532;2023-04-23T08:35:17;18.23;;;4.43;;
44036;SDS011;62488;-37.670;-63.532;2023-04-23T08:37:44;21.70;;;4.00;;
44036;SDS011;62488;-37.670;-63.532;2023-04-23T08:40:12;19.52;;;4.88;;
44036;SDS011;62488;-37.670;-63.532;2023-04-23T08:42:53;22.77;;;5.15;;
44036;SDS011;62488;-37.670;-63.532;2023-04-23T08:45:24;16.02;;;3.63;;
44036;SDS011;62488;-37.670;-63.532;2023-04-23T08:47:57;19.13;;;4.30;;
44036;SDS011;62488;-37.670;-63.532;2023-04-23T08:50:25;21.75;;;4.05;;
44036;SDS011;62488;-37.670;-63.532;2023-04-23T08:52:56;26.30;;;4.65;;
44036;SDS011;62488;-37.670;-63.532;2023-04-23T08:55:24;16.70;;;3.92;;
44036;SDS011;62488;-37.670;-63.532;2023-04-23T08:57:51;21.13;;;4.85;;
44036;SDS011;62488;-37.670;-63.532;2023-04-23T09:00:20;17.25;;;3.75;;
44036;SDS011;62488;-37.670;-63.532;2023-04-23T09:02:50;16.52;;;4.13;;
44036;SDS011;62488;-37.670;-63.532;2023-04-23T09:05:19;15.73;;;3.78;;
44036;SDS011;62488;-37.670;-63.532;2023-04-23T09:07:46;27.17;;;5.15;;
44036;SDS011;62488;-37.670;-63.532;2023-04-23T09:10:13;15.27;;;4.13;;
44036;SDS011;62488;-37.670;-63.532;2023-04-23T09:12:41;15.80;;;3.63;;
44036;SDS011;62488;-37.670;-63.532;2023-04-23T09:15:09;19.38;;;4.50;;
44036;SDS011;62488;-37.670;-63.532;2023-04-23T09:17:46;16.55;;;4.07;;
44036;SDS011;62488;-37.670;-63.532;2023-04-23T09:20:14;25.08;;;4.68;;
44036;SDS011;62488;-37.670;-63.532;2023-04-23T09:22:46;19.27;;;4.68;;
44036;SDS011;62488;-37.670;-63.532;2023-04-23T09:25:15;19.63;;;4.20;;
44036;SDS011;62488;-37.670;-63.532;2023-04-23T09:27:46;16.55;;;4.05;;
44036;SDS011;62488;-37.670;-63.532;2023-04-23T09:30:14;14.60;;;4.30;;
44036;SDS011;62488;-37.670;-63.532;2023-04-23T09:32:43;16.77;;;4.90;;
44036;SDS011;62488;-37.670;-63.532;2023-04-23T09:35:15;21.67;;;4.22;;
44036;SDS011;62488;-37.670;-63.532;2023-04-23T09:37:47;19.70;;;3.83;;
44036;SDS011;62488;-37.670;-63.532;2023-04-23T09:40:18;12.35;;;4.03;;
44036;SDS011;62488;-37.670;-63.532;2023-04-23T09:42:48;11.68;;;4.30;;
44036;SDS011;62488;-37.670;-63.532;2023-04-23T09:45:19;25.05;;;5.38;;
44036;SDS011;62488;-37.670;-63.532;2023-04-23T09:47:52;17.23;;;5.05;;
44036;SDS011;62488;-37.670;-63.532;2023-04-23T09:50:36;20.52;;;4.43;;
44036;SDS011;62488;-37.670;-63.532;2023-04-23T09:53:05;20.45;;;4.57;;
44036;SDS011;62488;-37.670;-63.532;2023-04-23T09:55:35;20.20;;;3.90;;
44036;SDS011;62488;-37.670;-63.532;2023-04-23T09:58:03;20.83;;;5.23;;
44036;SDS011;62488;-37.670;-63.532;2023-04-23T10:00:35;27.85;;;6.15;;
44036;SDS011;62488;-37.670;-63.532;2023-04-23T10:03:03;19.48;;;4.78;;
44036;SDS011;62488;-37.670;-63.532;2023-04-23T10:05:37;20.35;;;4.55;;
44036;SDS011;62488;-37.670;-63.532;2023-04-23T10:08:08;36.90;;;5.30;;
44036;SDS011;62488;-37.670;-63.532;2023-04-23T10:10:37;19.67;;;5.10;;
44036;SDS011;62488;-37.670;-63.532;2023-04-23T10:13:05;18.40;;;3.85;;
44036;SDS011;62488;-37.670;-63.532;2023-04-23T10:15:33;22.80;;;6.43;;
44036;SDS011;62488;-37.670;-63.532;2023-04-23T10:18:01;19.83;;;5.18;;
44036;SDS011;62488;-37.670;-63.532;2023-04-23T10:20:31;20.83;;;4.30;;
44036;SDS011;62488;-37.670;-63.532;2023-04-23T10:23:00;16.55;;;4.07;;
44036;SDS011;62488;-37.670;-63.532;2023-04-23T10:25:28;18.95;;;5.35;;
44036;SDS011;62488;-37.670;-63.532;2023-04-23T10:27:56;14.75;;;4.78;;
44036;SDS011;62488;-37.670;-63.532;2023-04-23T10:30:26;18.77;;;4.28;;
44036;SDS011;62488;-37.670;-63.532;2023-04-23T10:32:54;25.85;;;6.25;;
44036;SDS011;62488;-37.670;-63.532;2023-04-23T10:35:25;24.35;;;5.10;;
44036;SDS011;62488;-37.670;-63.532;2023-04-23T10:37:53;18.13;;;4.07;;
44036;SDS011;62488;-37.670;-63.532;2023-04-23T10:40:24;21.63;;;5.47;;
44036;SDS011;62488;-37.670;-63.532;2023-04-23T10:42:57;22.23;;;5.07;;
44036;SDS011;62488;-37.670;-63.532;2023-04-23T10:45:29;22.20;;;4.82;;
44036;SDS011;62488;-37.670;-63.532;2023-04-23T10:47:57;24.95;;;4.80;;
44036;SDS011;62488;-37.670;-63.532;2023-04-23T10:50:25;21.30;;;3.88;;
44036;SDS011;62488;-37.670;-63.532;2023-04-23T10:52:54;21.55;;;5.70;;
44036;SDS011;62488;-37.670;-63.532;2023-04-23T10:55:28;30.60;;;5.38;;
44036;SDS011;62488;-37.670;-63.532;2023-04-23T11:06:06;27.42;;;6.95;;
44036;SDS011;62488;-37.670;-63.532;2023-04-23T11:08:34;22.80;;;5.25;;
44036;SDS011;62488;-37.670;-63.532;2023-04-23T11:11:06;30.58;;;6.32;;
44036;SDS011;62488;-37.670;-63.532;2023-04-23T11:13:34;18.80;;;4.55;;
44036;SDS011;62488;-37.670;-63.532;2023-04-23T11:16:11;27.33;;;5.00;;
44036;SDS011;62488;-37.670;-63.532;2023-04-23T11:18:56;31.45;;;6.22;;
44036;SDS011;62488;-37.670;-63.532;2023-04-23T11:24:31;22.15;;;4.60;;
44036;SDS011;62488;-37.670;-63.532;2023-04-23T11:27:04;18.83;;;4.35;;
44036;SDS011;62488;-37.670;-63.532;2023-04-23T11:29:33;14.25;;;3.70;;
44036;SDS011;62488;-37.670;-63.532;2023-04-23T11:32:01;14.57;;;4.93;;
44036;SDS011;62488;-37.670;-63.532;2023-04-23T11:34:30;28.13;;;6.15;;
44036;SDS011;62488;-37.670;-63.532;2023-04-23T11:36:58;18.80;;;4.30;;
44036;SDS011;62488;-37.670;-63.532;2023-04-23T11:39:27;20.83;;;5.45;;
44036;SDS011;62488;-37.670;-63.532;2023-04-23T11:41:54;18.58;;;5.13;;
44036;SDS011;62488;-37.670;-63.532;2023-04-23T11:44:23;19.50;;;4.10;;
44036;SDS011;62488;-37.670;-63.532;2023-04-23T11:46:50;20.77;;;4.68;;
44036;SDS011;62488;-37.670;-63.532;2023-04-23T11:49:17;23.00;;;4.88;;
44036;SDS011;62488;-37.670;-63.532;2023-04-23T11:51:46;17.10;;;4.47;;
44036;SDS011;62488;-37.670;-63.532;2023-04-23T11:54:13;15.60;;;4.82;;
44036;SDS011;62488;-37.670;-63.532;2023-04-23T11:56:40;15.38;;;3.72;;
44036;SDS011;62488;-37.670;-63.532;2023-04-23T11:59:08;19.10;;;4.68;;
44036;SDS011;62488;-37.670;-63.532;2023-04-23T12:01:46;25.13;;;5.75;;
44036;SDS011;62488;-37.670;-63.532;2023-04-23T12:04:15;20.73;;;5.38;;
44036;SDS011;62488;-37.670;-63.532;2023-04-23T12:06:47;23.25;;;5.75;;
44036;SDS011;62488;-37.670;-63.532;2023-04-23T12:09:15;21.88;;;5.50;;
44036;SDS011;62488;-37.670;-63.532;2023-04-23T12:11:44;16.67;;;5.47;;
44036;SDS011;62488;-37.670;-63.532;2023-04-23T12:14:12;20.38;;;5.45;;
44036;SDS011;62488;-37.670;-63.532;2023-04-23T12:16:41;32.08;;;5.68;;
44036;SDS011;62488;-37.670;-63.532;2023-04-23T12:19:15;22.90;;;5.50;;
44036;SDS011;62488;-37.670;-63.532;2023-04-23T12:21:48;17.10;;;5.18;;
44036;SDS011;62488;-37.670;-63.532;2023-04-23T12:24:20;27.98;;;7.07;;
44036;SDS011;62488;-37.670;-63.532;2023-04-23T12:26:48;27.97;;;7.00;;
44036;SDS011;62488;-37.670;-63.532;2023-04-23T12:29:19;29.63;;;7.22;;
44036;SDS011;62488;-37.670;-63.532;2023-04-23T12:31:48;19.87;;;5.30;;
44036;SDS011;62488;-37.670;-63.532;2023-04-23T12:34:16;19.75;;;5.50;;
44036;SDS011;62488;-37.670;-63.532;2023-04-23T12:36:51;21.90;;;5.15;;
44036;SDS011;62488;-37.670;-63.532;2023-04-23T12:39:23;20.45;;;5.93;;
44036;SDS011;62488;-37.670;-63.532;2023-04-23T12:41:55;31.05;;;6.88;;
44036;SDS011;62488;-37.670;-63.532;2023-04-23T12:44:25;29.08;;;5.50;;
44036;SDS011;62488;-37.670;-63.532;2023-04-23T12:47:01;62.60;;;6.95;;
44036;SDS011;62488;-37.670;-63.532;2023-04-23T12:49:33;12.80;;;4.47;;
44036;SDS011;62488;-37.670;-63.532;2023-04-23T12:52:04;23.88;;;4.50;;
44036;SDS011;62488;-37.670;-63.532;2023-04-23T12:54:35;29.05;;;5.25;;
44036;SDS011;62488;-37.670;-63.532;2023-04-23T12:57:07;13.02;;;3.40;;
44036;SDS011;62488;-37.670;-63.532;2023-04-23T12:59:38;22.45;;;5.20;;
44036;SDS011;62488;-37.670;-63.532;2023-04-23T13:02:05;34.45;;;5.82;;
44036;SDS011;62488;-37.670;-63.532;2023-04-23T13:04:33;17.45;;;4.57;;
44036;SDS011;62488;-37.670;-63.532;2023-04-23T13:07:01;21.30;;;5.60;;
44036;SDS011;62488;-37.670;-63.532;2023-04-23T13:09:28;27.00;;;6.28;;
44036;SDS011;62488;-37.670;-63.532;2023-04-23T13:11:55;11.68;;;4.10;;
44036;SDS011;62488;-37.670;-63.532;2023-04-23T13:14:24;38.63;;;6.10;;
44036;SDS011;62488;-37.670;-63.532;2023-04-23T13:16:52;21.88;;;6.38;;
44036;SDS011;62488;-37.670;-63.532;2023-04-23T13:19:19;24.60;;;6.63;;
44036;SDS011;62488;-37.670;-63.532;2023-04-23T13:21:46;18.20;;;5.32;;
44036;SDS011;62488;-37.670;-63.532;2023-04-23T13:24:13;27.20;;;7.95;;
44036;SDS011;62488;-37.670;-63.532;2023-04-23T13:26:40;26.10;;;6.47;;
44036;SDS011;62488;-37.670;-63.532;2023-04-23T13:29:07;20.02;;;5.90;;
44036;SDS011;62488;-37.670;-63.532;2023-04-23T13:31:34;26.58;;;7.43;;
44036;SDS011;62488;-37.670;-63.532;2023-04-23T13:34:01;24.23;;;6.80;;
44036;SDS011;62488;-37.670;-63.532;2023-04-23T13:36:28;24.15;;;6.88;;
44036;SDS011;62488;-37.670;-63.532;2023-04-23T13:38:55;24.92;;;7.10;;
44036;SDS011;62488;-37.670;-63.532;2023-04-23T13:41:22;22.80;;;7.60;;
44036;SDS011;62488;-37.670;-63.532;2023-04-23T13:43:50;21.25;;;6.82;;
44036;SDS011;62488;-37.670;-63.532;2023-04-23T13:46:17;25.83;;;6.93;;
44036;SDS011;62488;-37.670;-63.532;2023-04-23T13:48:44;22.83;;;6.07;;
44036;SDS011;62488;-37.670;-63.532;2023-04-23T13:51:11;19.00;;;7.40;;
44036;SDS011;62488;-37.670;-63.532;2023-04-23T13:53:38;27.10;;;6.25;;
44036;SDS011;62488;-37.670;-63.532;2023-04-23T13:56:07;28.13;;;7.45;;
44036;SDS011;62488;-37.670;-63.532;2023-04-23T13:58:34;24.50;;;6.75;;
44036;SDS011;62488;-37.670;-63.532;2023-04-23T14:01:02;26.63;;;6.88;;
44036;SDS011;62488;-37.670;-63.532;2023-04-23T14:03:29;23.98;;;8.07;;
44036;SDS011;62488;-37.670;-63.532;2023-04-23T14:05:56;25.83;;;7.13;;
44036;SDS011;62488;-37.670;-63.532;2023-04-23T14:08:23;20.92;;;5.90;;
44036;SDS011;62488;-37.670;-63.532;2023-04-23T14:10:51;19.05;;;5.97;;
44036;SDS011;62488;-37.670;-63.532;2023-04-23T14:13:18;23.08;;;6.05;;
44036;SDS011;62488;-37.670;-63.532;2023-04-23T14:15:45;26.40;;;7.30;;